Time;durP1;ratioP1;P1;durP2;ratioP2;P2;SDS_P1;SDS_P2;PMS_P1;PMS_P2;Temp;Humidity;BMP_temperature;BMP_pressure;BME280_temperature;BME280_humidity;BME280_pressure;Samples;Min_cycle;Max_cycle;Signal;HPM_P1;HPM_P2
2023/05/08 00:00:32;;;;;;;17.00;14.85;;;11.00;99.90;;;;;;5022888;28;20488;-85
2023/05/08 00:02:58;;;;;;;16.15;13.80;;;11.00;99.90;;;;;;5022829;28;20462;-85
2023/05/08 00:05:24;;;;;;;18.23;14.40;;;11.10;99.90;;;;;;5033592;28;20148;-84
2023/05/08 00:07:59;;;;;;;16.50;13.93;;;11.10;99.90;;;;;;5022399;28;20040;-84
2023/05/08 00:10:26;;;;;;;17.23;14.45;;;11.00;99.90;;;;;;5016648;28;20065;-85
2023/05/08 00:12:51;;;;;;;16.17;14.18;;;11.10;99.90;;;;;;5015688;28;20532;-85
2023/05/08 00:15:18;;;;;;;19.15;14.98;;;11.10;99.90;;;;;;5021015;28;20041;-85
2023/05/08 00:17:43;;;;;;;17.15;13.98;;;11.10;99.90;;;;;;5016599;28;20041;-85
2023/05/08 00:20:10;;;;;;;17.60;14.38;;;11.10;99.90;;;;;;5022158;28;20056;-85
2023/05/08 00:22:36;;;;;;;17.27;14.50;;;11.10;99.90;;;;;;5016886;28;20041;-85
2023/05/08 00:25:04;;;;;;;16.88;14.73;;;11.20;99.90;;;;;;5020656;28;20148;-85
2023/05/08 00:27:32;;;;;;;17.70;14.60;;;11.20;99.90;;;;;;5026643;28;20141;-85
2023/05/08 00:29:58;;;;;;;17.25;15.30;;;11.20;99.90;;;;;;5030237;28;20654;-85
2023/05/08 00:32:24;;;;;;;16.10;14.38;;;11.20;99.90;;;;;;5031679;28;20298;-85
2023/05/08 00:34:50;;;;;;;17.33;14.80;;;11.30;99.90;;;;;;5016540;28;20423;-84
2023/05/08 00:37:16;;;;;;;17.23;15.05;;;11.30;99.90;;;;;;5035538;28;20582;-85
2023/05/08 00:39:41;;;;;;;17.08;14.50;;;11.30;99.90;;;;;;5020451;28;20049;-85
2023/05/08 00:42:07;;;;;;;17.30;15.40;;;11.30;99.90;;;;;;5013750;28;20049;-85
2023/05/08 00:44:33;;;;;;;16.63;14.88;;;11.30;99.90;;;;;;5020625;28;20517;-85
2023/05/08 00:46:59;;;;;;;17.25;15.10;;;11.30;99.90;;;;;;5031272;28;20083;-84
2023/05/08 00:49:27;;;;;;;19.95;15.13;;;11.30;99.90;;;;;;5017995;28;20117;-85
2023/05/08 00:51:54;;;;;;;17.50;15.60;;;11.30;99.90;;;;;;5036156;28;20068;-85
2023/05/08 00:54:21;;;;;;;18.92;15.48;;;11.20;99.90;;;;;;5021640;28;20410;-85
2023/05/08 00:56:49;;;;;;;19.60;15.50;;;11.10;99.90;;;;;;5031558;28;20135;-85
2023/05/08 00:59:16;;;;;;;17.73;15.57;;;11.20;99.90;;;;;;5019324;28;20064;-85
2023/05/08 01:01:43;;;;;;;18.45;16.23;;;11.10;99.90;;;;;;5022594;28;20326;-85
2023/05/08 01:04:09;;;;;;;16.85;15.05;;;11.10;99.90;;;;;;5018626;28;20040;-85
2023/05/08 01:06:36;;;;;;;17.50;14.90;;;11.10;99.90;;;;;;5019926;28;20091;-85
2023/05/08 01:09:02;;;;;;;17.77;15.77;;;11.10;99.90;;;;;;5019561;28;20041;-85
2023/05/08 01:11:37;;;;;;;17.95;15.77;;;11.00;99.90;;;;;;5021333;28;20128;-84
2023/05/08 01:14:18;;;;;;;18.08;15.05;;;11.00;99.90;;;;;;5036668;28;20041;-84
2023/05/08 01:16:55;;;;;;;19.33;15.02;;;10.90;99.90;;;;;;5045643;28;20056;-85
2023/05/08 01:19:47;;;;;;;17.67;15.20;;;10.90;99.90;;;;;;5032213;28;20067;-85
2023/05/08 01:22:43;;;;;;;17.85;15.95;;;10.80;99.90;;;;;;5019285;28;20045;-85
2023/05/08 01:25:23;;;;;;;22.10;16.10;;;10.80;99.90;;;;;;5015630;28;20092;-85
2023/05/08 01:28:35;;;;;;;18.95;15.60;;;10.70;99.90;;;;;;5035628;28;20126;-85
2023/05/08 01:31:33;;;;;;;17.98;15.55;;;10.70;99.90;;;;;;5019894;28;20045;-85
2023/05/08 01:34:05;;;;;;;18.17;15.55;;;10.60;99.90;;;;;;4995212;28;20037;-85
2023/05/08 01:36:40;;;;;;;18.02;15.75;;;10.60;99.90;;;;;;5035803;28;20041;-85
2023/05/08 01:39:39;;;;;;;17.42;15.15;;;10.50;99.90;;;;;;5035405;28;20413;-85
2023/05/08 01:42:11;;;;;;;17.85;15.23;;;10.50;99.90;;;;;;5025863;28;21125;-85
2023/05/08 01:44:44;;;;;;;19.25;15.95;;;10.50;99.90;;;;;;5023976;28;20041;-85
2023/05/08 01:47:11;;;;;;;18.58;15.95;;;10.50;99.90;;;;;;5035568;28;20044;-85
2023/05/08 01:49:41;;;;;;;20.38;17.05;;;10.40;99.90;;;;;;5025269;28;20036;-84
2023/05/08 01:52:20;;;;;;;19.85;17.15;;;10.40;99.90;;;;;;5023581;28;20037;-86
2023/05/08 01:54:55;;;;;;;20.50;16.58;;;10.40;99.90;;;;;;5015091;28;20041;-85
2023/05/08 01:57:23;;;;;;;17.98;16.08;;;10.30;99.90;;;;;;5022981;28;20045;-85
2023/05/08 01:59:51;;;;;;;18.58;16.15;;;10.30;99.90;;;;;;5021969;28;20037;-85
2023/05/08 02:02:18;;;;;;;19.05;16.20;;;10.20;99.90;;;;;;5023960;28;20601;-85
2023/05/08 02:04:44;;;;;;;18.60;16.27;;;10.20;99.90;;;;;;5037768;28;20048;-85
2023/05/08 02:07:10;;;;;;;18.95;15.90;;;10.10;99.90;;;;;;5019490;28;20055;-85
2023/05/08 02:09:37;;;;;;;20.20;15.70;;;10.10;99.90;;;;;;5034672;28;20033;-85
2023/05/08 02:12:06;;;;;;;19.67;16.45;;;10.00;99.90;;;;;;5021014;28;20052;-85
2023/05/08 02:14:33;;;;;;;18.33;16.02;;;10.00;99.90;;;;;;5033181;28;20122;-86
2023/05/08 02:17:01;;;;;;;19.13;16.50;;;10.00;99.90;;;;;;5025621;28;20352;-85
2023/05/08 02:19:29;;;;;;;18.42;16.42;;;9.90;99.90;;;;;;5036632;28;20157;-85
2023/05/08 02:21:56;;;;;;;21.45;17.02;;;9.90;99.90;;;;;;5023777;28;20049;-85
2023/05/08 02:24:22;;;;;;;18.00;16.02;;;9.80;99.90;;;;;;5024024;28;20063;-85
2023/05/08 02:26:49;;;;;;;20.52;16.77;;;9.80;99.90;;;;;;5022831;28;20113;-86
2023/05/08 02:29:16;;;;;;;19.33;16.67;;;9.80;99.90;;;;;;5033987;28;20037;-86
2023/05/08 02:31:44;;;;;;;22.40;16.83;;;9.80;99.90;;;;;;5033732;28;20259;-85
2023/05/08 02:34:11;;;;;;;19.33;17.23;;;9.70;99.90;;;;;;5031376;28;20064;-85
2023/05/08 02:36:38;;;;;;;19.83;17.05;;;9.60;99.90;;;;;;5031203;28;20116;-86
2023/05/08 02:39:07;;;;;;;22.02;16.48;;;9.60;99.90;;;;;;5034637;28;20060;-86
2023/05/08 02:41:33;;;;;;;18.25;15.73;;;9.60;99.90;;;;;;5032829;28;20072;-86
2023/05/08 02:43:59;;;;;;;19.77;17.02;;;9.60;99.90;;;;;;5032961;28;20037;-86
2023/05/08 02:46:48;;;;;;;19.77;16.73;;;9.60;99.90;;;;;;5019059;28;20036;-86
2023/05/08 02:49:42;;;;;;;21.27;17.45;;;9.50;99.90;;;;;;5037240;28;20563;-85
2023/05/08 02:52:15;;;;;;;19.83;16.85;;;9.50;99.90;;;;;;5038990;28;20047;-85
2023/05/08 02:55:02;;;;;;;20.63;16.60;;;9.50;99.90;;;;;;5016021;28;20315;-85
2023/05/08 02:57:34;;;;;;;23.10;18.30;;;9.50;99.90;;;;;;5034263;28;20053;-85
2023/05/08 03:00:16;;;;;;;19.73;16.42;;;9.40;99.90;;;;;;5018243;28;20036;-85
2023/05/08 03:02:47;;;;;;;19.77;16.80;;;9.40;99.90;;;;;;5032656;28;20037;-85
2023/05/08 03:05:31;;;;;;;18.30;16.20;;;9.40;99.90;;;;;;5033484;28;20442;-85
2023/05/08 03:08:02;;;;;;;20.63;16.87;;;9.40;99.90;;;;;;5035216;28;20436;-85
2023/05/08 03:10:32;;;;;;;20.13;17.33;;;9.40;99.90;;;;;;5021448;28;20430;-85
2023/05/08 03:13:01;;;;;;;21.55;17.48;;;9.40;99.90;;;;;;5020174;28;20488;-85
2023/05/08 03:15:33;;;;;;;21.20;16.02;;;9.40;99.90;;;;;;5022240;28;20043;-85
2023/05/08 03:18:06;;;;;;;22.55;17.63;;;9.40;99.90;;;;;;5023256;28;20040;-86
2023/05/08 03:20:37;;;;;;;21.35;17.00;;;9.40;99.90;;;;;;5034776;28;20049;-85
2023/05/08 03:23:05;;;;;;;21.48;16.77;;;9.30;99.90;;;;;;5019407;28;20045;-85
2023/05/08 03:25:33;;;;;;;20.98;16.42;;;9.30;99.90;;;;;;5017334;28;20041;-85
2023/05/08 03:27:59;;;;;;;19.27;15.52;;;9.30;99.90;;;;;;5021448;28;20620;-85
2023/05/08 03:30:26;;;;;;;21.23;16.90;;;9.20;99.90;;;;;;5019274;28;20048;-85
2023/05/08 03:32:56;;;;;;;21.13;16.73;;;9.20;99.90;;;;;;5018388;28;20064;-85
2023/05/08 03:35:22;;;;;;;20.63;16.95;;;9.20;99.90;;;;;;5021440;28;20056;-85
2023/05/08 03:37:47;;;;;;;20.52;16.77;;;9.20;99.90;;;;;;5020163;28;20133;-85
2023/05/08 03:40:13;;;;;;;20.55;16.15;;;9.20;99.90;;;;;;5034448;28;20476;-86
2023/05/08 03:42:40;;;;;;;20.05;16.30;;;9.20;99.90;;;;;;5032988;28;20407;-85
2023/05/08 03:45:08;;;;;;;20.20;16.75;;;9.20;99.90;;;;;;5032733;28;20045;-85
2023/05/08 03:47:35;;;;;;;20.83;16.02;;;9.20;99.90;;;;;;5033059;28;20037;-85
2023/05/08 03:50:01;;;;;;;20.38;16.23;;;9.20;99.90;;;;;;5021784;28;20638;-85
2023/05/08 03:52:27;;;;;;;22.40;16.42;;;9.10;99.90;;;;;;5021752;28;20485;-85
2023/05/08 03:54:53;;;;;;;19.67;16.35;;;9.10;99.90;;;;;;5014007;28;20029;-86
2023/05/08 03:57:19;;;;;;;22.55;16.35;;;9.10;99.90;;;;;;5021681;28;20039;-85
2023/05/08 04:00:05;;;;;;;22.08;17.10;;;9.10;99.90;;;;;;5015774;28;20037;-85
2023/05/08 04:02:40;;;;;;;20.50;16.48;;;9.10;99.90;;;;;;5016209;28;20136;-85
2023/05/08 04:05:19;;;;;;;21.67;16.00;;;9.10;99.90;;;;;;5018585;28;20071;-86
2023/05/08 04:07:51;;;;;;;21.48;16.38;;;9.10;99.90;;;;;;5020851;28;20050;-85
2023/05/08 04:10:36;;;;;;;20.90;16.77;;;9.20;99.90;;;;;;5037536;28;20423;-86
2023/05/08 04:13:13;;;;;;;20.90;16.27;;;9.20;99.90;;;;;;5034332;28;20055;-86
2023/05/08 04:15:47;;;;;;;19.80;15.68;;;9.20;99.90;;;;;;5019957;28;20045;-86
2023/05/08 04:18:16;;;;;;;19.08;15.55;;;9.20;99.90;;;;;;5032396;28;20115;-86
2023/05/08 04:20:46;;;;;;;20.17;15.18;;;9.30;99.90;;;;;;5029460;28;20048;-85
2023/05/08 04:23:16;;;;;;;18.73;15.27;;;9.30;99.90;;;;;;5032425;28;20052;-86
2023/05/08 04:25:43;;;;;;;20.58;15.32;;;9.30;99.90;;;;;;5031156;28;20048;-87
2023/05/08 04:28:10;;;;;;;21.35;15.60;;;9.40;99.90;;;;;;5048403;28;20507;-86
2023/05/08 04:30:36;;;;;;;19.05;15.85;;;9.40;99.90;;;;;;5019992;28;20052;-85
2023/05/08 04:33:03;;;;;;;19.92;15.65;;;9.40;99.90;;;;;;5034102;28;20128;-86
2023/05/08 04:35:29;;;;;;;17.80;14.85;;;9.50;99.90;;;;;;5017557;28;20033;-86
2023/05/08 04:37:57;;;;;;;20.50;16.10;;;9.50;99.90;;;;;;5018731;28;20091;-86
2023/05/08 04:40:22;;;;;;;18.73;14.65;;;9.60;99.90;;;;;;5020479;28;20049;-86
2023/05/08 04:42:48;;;;;;;17.25;14.77;;;9.60;99.90;;;;;;5021335;28;20048;-86
2023/05/08 04:45:14;;;;;;;16.80;14.20;;;9.70;99.90;;;;;;5019952;28;20055;-87
2023/05/08 04:47:40;;;;;;;17.60;14.80;;;9.80;99.90;;;;;;5034913;28;20068;-86
2023/05/08 04:50:06;;;;;;;18.10;14.48;;;9.80;99.90;;;;;;5017892;28;20135;-86
2023/05/08 04:52:31;;;;;;;18.77;14.77;;;9.90;99.90;;;;;;5032288;28;20075;-86
2023/05/08 04:54:57;;;;;;;22.75;15.32;;;10.00;99.90;;;;;;5020354;28;20060;-86
2023/05/08 04:57:23;;;;;;;17.35;14.63;;;10.10;99.90;;;;;;5022192;28;20049;-86
2023/05/08 04:59:48;;;;;;;19.35;14.45;;;10.20;99.90;;;;;;5015693;28;20080;-86
2023/05/08 05:02:14;;;;;;;17.42;14.10;;;10.30;99.90;;;;;;5034492;28;20041;-86
2023/05/08 05:04:40;;;;;;;18.27;14.57;;;10.30;99.90;;;;;;5032773;28;20396;-87
2023/05/08 05:07:05;;;;;;;17.42;13.50;;;10.40;99.90;;;;;;5021447;28;20049;-86
2023/05/08 05:09:35;;;;;;;16.48;14.18;;;10.50;99.90;;;;;;5014923;28;20044;-86
2023/05/08 05:12:02;;;;;;;19.55;13.73;;;10.50;99.90;;;;;;5024659;28;20357;-86
2023/05/08 05:14:28;;;;;;;16.77;13.38;;;10.50;99.90;;;;;;5034666;28;20033;-86
2023/05/08 05:16:57;;;;;;;15.18;13.07;;;10.70;99.90;;;;;;5034985;28;20041;-86
2023/05/08 05:19:23;;;;;;;15.57;13.70;;;10.70;99.90;;;;;;5035972;28;20037;-86
2023/05/08 05:21:48;;;;;;;15.07;12.32;;;10.80;99.90;;;;;;5020071;28;20044;-86
2023/05/08 05:24:14;;;;;;;16.67;12.80;;;10.90;99.90;;;;;;5022902;28;20044;-86
2023/05/08 05:26:40;;;;;;;14.85;12.93;;;11.00;99.90;;;;;;5023953;28;20099;-86
2023/05/08 05:29:05;;;;;;;15.13;13.43;;;11.00;99.90;;;;;;5024531;28;20049;-86
2023/05/08 05:31:31;;;;;;;15.98;12.80;;;11.10;99.90;;;;;;5020057;28;20033;-86
2023/05/08 05:34:00;;;;;;;14.18;12.18;;;11.20;99.90;;;;;;5019959;28;20045;-86
2023/05/08 05:36:25;;;;;;;14.60;12.93;;;11.20;99.90;;;;;;5019592;28;20127;-86
2023/05/08 05:38:51;;;;;;;14.05;12.23;;;11.30;99.90;;;;;;5022439;28;20135;-86
2023/05/08 05:41:17;;;;;;;13.55;11.93;;;11.40;99.90;;;;;;5021522;28;20156;-85
2023/05/08 05:43:42;;;;;;;14.05;12.20;;;11.40;99.90;;;;;;5018729;28;20045;-86
2023/05/08 05:46:08;;;;;;;14.15;12.48;;;11.50;99.90;;;;;;5024031;28;20056;-86
2023/05/08 05:48:35;;;;;;;13.65;11.82;;;11.50;99.90;;;;;;5034226;28;20372;-86
2023/05/08 05:51:00;;;;;;;13.50;12.00;;;11.60;99.90;;;;;;5025963;28;20221;-85
2023/05/08 05:53:26;;;;;;;13.77;12.30;;;11.70;99.90;;;;;;5019717;28;20189;-86
2023/05/08 05:55:52;;;;;;;18.08;12.15;;;11.70;99.90;;;;;;5024903;28;20103;-86
2023/05/08 05:58:18;;;;;;;14.10;12.60;;;11.80;99.90;;;;;;5032790;28;20303;-86
2023/05/08 06:00:44;;;;;;;13.90;12.02;;;11.90;99.90;;;;;;5035575;28;20091;-86
2023/05/08 06:03:10;;;;;;;13.48;11.52;;;12.10;99.90;;;;;;5025244;28;20561;-86
2023/05/08 06:05:36;;;;;;;13.43;11.40;;;12.10;99.90;;;;;;5035510;28;20476;-87
2023/05/08 06:08:04;;;;;;;13.52;11.70;;;12.20;99.90;;;;;;5019420;28;20032;-86
2023/05/08 06:10:33;;;;;;;13.77;11.85;;;12.40;99.90;;;;;;5020024;28;20069;-86
2023/05/08 06:12:59;;;;;;;14.02;12.27;;;12.50;99.90;;;;;;5018708;28;20427;-86
2023/05/08 06:15:25;;;;;;;13.88;12.07;;;12.70;99.90;;;;;;5036788;28;20124;-86
2023/05/08 06:17:51;;;;;;;13.55;12.05;;;12.70;99.90;;;;;;5022820;28;20036;-86
2023/05/08 06:20:17;;;;;;;13.55;10.93;;;12.90;99.90;;;;;;5022454;28;20076;-86
2023/05/08 06:22:43;;;;;;;13.40;12.00;;;12.90;99.90;;;;;;5019256;28;20045;-86
2023/05/08 06:25:09;;;;;;;12.52;11.18;;;13.10;99.90;;;;;;5021082;28;20171;-86
2023/05/08 06:27:35;;;;;;;12.57;11.27;;;13.20;99.90;;;;;;5023227;28;21186;-86
2023/05/08 06:30:03;;;;;;;12.23;10.93;;;13.20;99.90;;;;;;5017640;28;20047;-86
2023/05/08 06:32:29;;;;;;;15.18;11.68;;;13.20;99.90;;;;;;5035509;28;20156;-86
2023/05/08 06:34:55;;;;;;;12.40;11.10;;;13.40;99.90;;;;;;5038677;28;20271;-86
2023/05/08 06:37:21;;;;;;;12.65;11.35;;;13.40;99.90;;;;;;5036540;28;20387;-85
2023/05/08 06:39:47;;;;;;;12.60;11.23;;;13.50;99.90;;;;;;5020207;28;20053;-86
2023/05/08 06:42:12;;;;;;;15.02;11.13;;;13.70;99.90;;;;;;5020910;28;20045;-86
2023/05/08 06:44:39;;;;;;;12.77;10.75;;;13.80;99.90;;;;;;5022091;28;20045;-86
2023/05/08 06:47:05;;;;;;;12.82;11.55;;;13.50;99.90;;;;;;5033789;28;20180;-86
2023/05/08 06:49:31;;;;;;;12.77;11.48;;;13.40;99.90;;;;;;5017751;28;20029;-86
2023/05/08 06:51:57;;;;;;;13.82;12.48;;;13.50;99.90;;;;;;5023064;28;20041;-86
2023/05/08 06:54:23;;;;;;;13.07;11.65;;;13.60;99.90;;;;;;5020036;28;20056;-84
2023/05/08 06:56:48;;;;;;;12.80;11.50;;;13.80;99.90;;;;;;5017028;28;20103;-86
2023/05/08 06:59:14;;;;;;;13.88;12.05;;;13.80;99.90;;;;;;5023521;28;20051;-86
2023/05/08 07:01:40;;;;;;;13.55;12.15;;;14.00;99.90;;;;;;5018234;28;20043;-86
2023/05/08 07:04:08;;;;;;;13.70;11.70;;;14.30;99.90;;;;;;5014901;28;20508;-86
2023/05/08 07:06:34;;;;;;;13.75;11.07;;;14.60;99.90;;;;;;5035913;28;20497;-87
2023/05/08 07:09:00;;;;;;;16.73;11.95;;;14.50;99.90;;;;;;5019786;28;20208;-86
2023/05/08 07:11:25;;;;;;;14.52;11.43;;;14.90;99.90;;;;;;5024090;28;20076;-86
2023/05/08 07:13:51;;;;;;;16.00;11.82;;;14.90;99.90;;;;;;5022833;28;20025;-86
2023/05/08 07:16:17;;;;;;;12.45;11.20;;;15.00;99.90;;;;;;5022730;28;20124;-86
2023/05/08 07:18:43;;;;;;;12.45;11.15;;;15.10;99.90;;;;;;5020583;28;20029;-87
2023/05/08 07:21:09;;;;;;;12.48;11.18;;;15.20;99.90;;;;;;5018570;28;20042;-86
2023/05/08 07:23:35;;;;;;;12.88;11.45;;;15.10;99.90;;;;;;5030857;28;20037;-87
2023/05/08 07:26:01;;;;;;;13.27;11.30;;;15.00;99.90;;;;;;5020127;28;20511;-86
2023/05/08 07:28:27;;;;;;;12.07;10.88;;;15.10;99.90;;;;;;5018227;28;20589;-86
2023/05/08 07:30:53;;;;;;;13.60;11.07;;;15.20;99.90;;;;;;5021921;28;20033;-86
2023/05/08 07:33:19;;;;;;;12.55;10.85;;;15.40;99.90;;;;;;5036605;28;20453;-87
2023/05/08 07:35:45;;;;;;;12.18;10.90;;;15.40;99.90;;;;;;5021192;28;20126;-86
2023/05/08 07:38:10;;;;;;;13.90;10.80;;;15.40;99.90;;;;;;5029008;28;20095;-86
2023/05/08 07:40:36;;;;;;;11.43;10.23;;;15.50;99.90;;;;;;5014671;28;20254;-86
2023/05/08 07:43:04;;;;;;;13.52;11.20;;;15.60;99.90;;;;;;5021884;28;20044;-86
2023/05/08 07:45:30;;;;;;;11.63;10.50;;;15.60;99.90;;;;;;5023982;28;20811;-86
2023/05/08 07:47:57;;;;;;;14.02;11.30;;;15.80;99.90;;;;;;5018692;28;20296;-86
2023/05/08 07:50:24;;;;;;;11.13;10.02;;;15.80;99.90;;;;;;5019917;28;20042;-85
2023/05/08 07:52:51;;;;;;;13.13;10.88;;;15.80;99.90;;;;;;5028962;28;20041;-86
2023/05/08 07:55:17;;;;;;;12.25;11.02;;;16.00;99.90;;;;;;5018749;28;20050;-86
2023/05/08 07:57:44;;;;;;;12.13;10.93;;;16.10;99.90;;;;;;5029788;28;20037;-86
2023/05/08 08:00:12;;;;;;;11.40;10.20;;;16.20;99.90;;;;;;5018818;28;20146;-86
2023/05/08 08:02:38;;;;;;;13.20;11.13;;;16.20;99.90;;;;;;5018862;28;20045;-86
2023/05/08 08:05:05;;;;;;;11.45;10.32;;;16.00;99.90;;;;;;5033394;28;20041;-86
2023/05/08 08:07:31;;;;;;;11.18;10.07;;;16.30;99.90;;;;;;5019081;28;20045;-86
2023/05/08 08:10:01;;;;;;;12.00;10.77;;;16.40;99.90;;;;;;5014395;28;20512;-86
2023/05/08 08:12:27;;;;;;;12.07;10.88;;;16.20;99.90;;;;;;5020744;28;20480;-87
2023/05/08 08:14:53;;;;;;;11.50;10.30;;;16.10;99.90;;;;;;5016484;28;20040;-86
2023/05/08 08:17:19;;;;;;;11.70;10.25;;;16.50;99.90;;;;;;5019879;28;20045;-86
2023/05/08 08:19:45;;;;;;;12.27;10.95;;;16.60;99.90;;;;;;5035060;28;20453;-86
2023/05/08 08:22:11;;;;;;;11.55;10.32;;;16.70;99.90;;;;;;5019699;28;20045;-87
2023/05/08 08:24:37;;;;;;;12.02;10.60;;;16.60;99.90;;;;;;5020059;28;20045;-86
2023/05/08 08:27:03;;;;;;;13.07;10.50;;;16.80;99.90;;;;;;5020178;28;20103;-86
2023/05/08 08:29:29;;;;;;;12.13;10.82;;;16.70;99.90;;;;;;5029003;28;20033;-86
2023/05/08 08:31:55;;;;;;;12.45;10.88;;;16.60;99.90;;;;;;5017306;28;20065;-86
2023/05/08 08:34:21;;;;;;;13.00;11.05;;;16.60;99.90;;;;;;5021274;28;20652;-86
2023/05/08 08:36:47;;;;;;;12.27;10.98;;;17.00;99.90;;;;;;5018483;28;20049;-86
2023/05/08 08:39:13;;;;;;;12.23;10.93;;;17.00;99.90;;;;;;5013264;28;20543;-86
2023/05/08 08:41:39;;;;;;;12.00;10.80;;;17.00;99.90;;;;;;5028405;28;20064;-87
2023/05/08 08:44:05;;;;;;;12.27;11.07;;;17.30;99.90;;;;;;5027868;28;20046;-86
2023/05/08 08:46:32;;;;;;;12.48;11.18;;;17.00;99.90;;;;;;5018530;28;20071;-86
2023/05/08 08:48:58;;;;;;;12.88;11.55;;;17.40;99.90;;;;;;5020667;28;20628;-87
2023/05/08 08:51:31;;;;;;;12.25;10.95;;;17.50;99.90;;;;;;5021832;28;20045;-86
2023/05/08 08:54:22;;;;;;;12.23;10.65;;;17.60;99.90;;;;;;5030804;28;20098;-86
2023/05/08 08:56:48;;;;;;;12.77;11.38;;;17.70;99.90;;;;;;5020951;28;20366;-86
2023/05/08 08:59:17;;;;;;;12.27;11.02;;;18.30;99.90;;;;;;5022032;28;20559;-86
2023/05/08 09:01:46;;;;;;;12.13;10.77;;;18.60;99.90;;;;;;5022032;28;20230;-87
2023/05/08 09:04:12;;;;;;;12.55;11.23;;;19.00;99.90;;;;;;5020408;28;20080;-87
2023/05/08 09:06:39;;;;;;;12.10;10.70;;;19.20;99.90;;;;;;5022386;28;20550;-86
2023/05/08 09:09:06;;;;;;;11.95;10.85;;;19.10;99.90;;;;;;5031065;28;20046;-86
2023/05/08 09:11:32;;;;;;;13.32;11.00;;;19.40;99.90;;;;;;5031363;28;20107;-86
2023/05/08 09:13:58;;;;;;;12.38;11.18;;;19.30;99.90;;;;;;5026588;28;20461;-87
2023/05/08 09:16:26;;;;;;;12.27;10.52;;;19.40;99.90;;;;;;5031378;28;20040;-86
2023/05/08 09:18:52;;;;;;;14.40;10.90;;;19.20;99.90;;;;;;5019660;28;20029;-86
2023/05/08 09:21:19;;;;;;;12.52;11.32;;;19.20;99.90;;;;;;5022295;28;20083;-86
2023/05/08 09:23:54;;;;;;;12.63;11.18;;;19.30;99.90;;;;;;5016843;28;20276;-86
2023/05/08 09:26:31;;;;;;;;;;;19.20;99.90;;;;;;5014246;28;20491;-87
2023/05/08 09:29:14;;;;;;;13.35;11.35;;;19.30;99.90;;;;;;5032066;28;19927;-86
2023/05/08 09:31:45;;;;;;;16.63;12.02;;;19.40;99.90;;;;;;5015840;28;20072;-86
2023/05/08 09:34:32;;;;;;;12.63;11.32;;;19.10;99.90;;;;;;5027914;28;20052;-86
2023/05/08 09:37:04;;;;;;;11.73;10.57;;;18.70;99.90;;;;;;5018623;28;20292;-86
2023/05/08 09:39:29;;;;;;;13.45;12.15;;;19.20;99.90;;;;;;5016484;28;20476;-86
2023/05/08 09:41:57;;;;;;;12.68;11.35;;;19.40;99.90;;;;;;5019952;28;20049;-86
2023/05/08 09:44:23;;;;;;;13.27;12.00;;;19.40;99.90;;;;;;5017248;28;20124;-87
2023/05/08 09:46:49;;;;;;;13.02;11.43;;;19.40;99.90;;;;;;5021872;28;20120;-86
2023/05/08 09:49:18;;;;;;;13.10;11.80;;;19.00;99.90;;;;;;5020615;28;20036;-86
2023/05/08 09:51:54;;;;;;;12.57;11.10;;;19.60;99.90;;;;;;5032716;28;20077;-87
2023/05/08 09:54:19;;;;;;;13.63;12.23;;;19.80;99.90;;;;;;5030764;28;20041;-86
2023/05/08 09:56:45;;;;;;;12.73;11.40;;;19.80;99.90;;;;;;5029096;28;20476;-86
2023/05/08 09:59:28;;;;;;;16.95;12.73;;;20.10;99.90;;;;;;5021101;28;20060;-86
2023/05/08 10:01:57;;;;;;;13.93;12.50;;;19.20;99.90;;;;;;5024179;28;20041;-86
2023/05/08 10:04:36;;;;;;;14.75;13.10;;;19.80;99.90;;;;;;5023347;28;20064;-86
2023/05/08 10:07:05;;;;;;;14.13;12.63;;;20.20;99.90;;;;;;5018752;28;20131;-86
2023/05/08 10:09:30;;;;;;;14.15;12.75;;;20.30;99.90;;;;;;5021956;28;20094;-86
2023/05/08 10:11:56;;;;;;;15.23;13.63;;;20.40;99.90;;;;;;5023981;28;20049;-86
2023/05/08 10:14:23;;;;;;;14.70;13.30;;;20.70;99.90;;;;;;5032594;28;20033;-86
2023/05/08 10:16:54;;;;;;;15.93;13.27;;;20.40;99.90;;;;;;5023592;28;20418;-86
2023/05/08 10:19:21;;;;;;;16.08;14.38;;;20.40;99.90;;;;;;5036207;28;20051;-85
2023/05/08 10:21:49;;;;;;;14.38;12.98;;;20.30;99.90;;;;;;5028363;28;20053;-86
2023/05/08 10:24:18;;;;;;;14.55;13.07;;;20.20;99.90;;;;;;5018592;28;20622;-86
2023/05/08 10:27:03;;;;;;;16.80;13.90;;;20.70;99.90;;;;;;5015931;28;20041;-86
2023/05/08 10:29:40;;;;;;;15.63;13.93;;;20.50;99.90;;;;;;5022777;28;20083;-86
2023/05/08 10:32:09;;;;;;;14.57;13.18;;;20.80;99.90;;;;;;5020870;28;20051;-85
2023/05/08 10:34:39;;;;;;;15.43;13.85;;;21.30;99.90;;;;;;5035704;28;20124;-86
2023/05/08 10:37:11;;;;;;;14.77;13.27;;;20.80;99.90;;;;;;5020992;28;20037;-86
2023/05/08 10:39:38;;;;;;;15.57;14.07;;;21.10;99.90;;;;;;5034928;28;20215;-85
2023/05/08 10:42:07;;;;;;;16.48;13.30;;;21.20;99.90;;;;;;5015317;28;20036;-87
2023/05/08 10:44:33;;;;;;;14.82;13.23;;;21.60;99.90;;;;;;5033481;28;20036;-87
2023/05/08 10:47:24;;;;;;;15.93;14.32;;;21.80;99.90;;;;;;5022633;28;20044;-87
2023/05/08 10:50:03;;;;;;;15.50;13.88;;;21.70;99.90;;;;;;5019486;28;20099;-86
2023/05/08 10:52:41;;;;;;;14.98;13.48;;;21.80;99.90;;;;;;5022791;28;20364;-86
2023/05/08 10:55:30;;;;;;;14.85;13.45;;;21.90;99.90;;;;;;5049780;28;20309;-86
2023/05/08 10:58:11;;;;;;;15.50;13.80;;;21.70;99.90;;;;;;5021365;28;20329;-87
2023/05/08 11:00:51;;;;;;;15.23;13.73;;;21.70;21.00;;;;;;5022574;28;20076;-87
2023/05/08 11:03:23;;;;;;;14.45;13.02;;;21.90;71.00;;;;;;5032777;28;20041;-86
2023/05/08 11:05:50;;;;;;;14.55;13.05;;;22.30;99.90;;;;;;5026524;28;20044;-86
2023/05/08 11:08:24;;;;;;;14.60;13.20;;;22.00;99.90;;;;;;5030525;28;20041;-86
2023/05/08 11:11:03;;;;;;;15.60;14.00;;;22.30;99.90;;;;;;5022075;28;20036;-86
2023/05/08 11:13:35;;;;;;;15.32;13.73;;;22.10;99.90;;;;;;5029460;28;20060;-86
2023/05/08 11:16:01;;;;;;;15.10;13.38;;;22.20;99.90;;;;;;5021579;28;20213;-86
2023/05/08 11:18:28;;;;;;;14.90;12.90;;;22.40;99.90;;;;;;5021930;28;20106;-86
2023/05/08 11:21:05;;;;;;;15.05;12.93;;;22.90;99.90;;;;;;5017588;28;20037;-86
2023/05/08 11:23:35;;;;;;;13.00;11.70;;;23.00;99.90;;;;;;5033360;28;20041;-86
2023/05/08 11:26:11;;;;;;;13.85;12.50;;;23.20;1.00;;;;;;5019181;28;20052;-86
2023/05/08 11:28:38;;;;;;;14.10;12.60;;;23.00;99.90;;;;;;5016512;28;20414;-87
2023/05/08 11:31:06;;;;;;;13.68;12.27;;;23.20;70.20;;;;;;5022805;28;20451;-86
2023/05/08 11:33:36;;;;;;;14.35;12.95;;;23.10;99.90;;;;;;5018929;28;20039;-87
2023/05/08 11:36:24;;;;;;;13.88;12.38;;;22.90;99.90;;;;;;5022556;28;20458;-87
2023/05/08 11:39:14;;;;;;;13.90;12.32;;;23.50;99.90;;;;;;5018608;28;20385;-87
2023/05/08 11:41:40;;;;;;;16.25;13.18;;;23.40;99.90;;;;;;5037938;28;20057;-86
2023/05/08 11:44:19;;;;;;;14.68;13.20;;;23.90;99.90;;;;;;5027859;28;20099;-86
2023/05/08 11:46:48;;;;;;;13.85;12.43;;;23.90;99.90;;;;;;5037662;28;20068;-86
2023/05/08 11:49:15;;;;;;;14.98;13.30;;;24.00;99.90;;;;;;5017328;28;20033;-87
2023/05/08 11:51:45;;;;;;;15.25;13.13;;;24.20;99.90;;;;;;5021880;28;20126;-87
2023/05/08 11:54:13;;;;;;;13.13;11.82;;;24.00;1.00;;;;;;5020650;28;20072;-86
2023/05/08 11:56:39;;;;;;;12.98;11.68;;;24.70;99.90;;;;;;5021203;28;20048;-86
2023/05/08 11:59:07;;;;;;;13.30;11.90;;;24.70;57.60;;;;;;5021678;28;20041;-87
2023/05/08 12:01:33;;;;;;;13.70;12.27;;;24.60;1.00;;;;;;5034328;28;20040;-87
2023/05/08 12:04:10;;;;;;;14.13;12.73;;;25.10;99.90;;;;;;5022723;28;20036;-87
2023/05/08 12:06:38;;;;;;;13.60;11.18;;;24.50;99.90;;;;;;5022365;28;20505;-87
2023/05/08 12:09:16;;;;;;;11.52;9.63;;;24.90;1.00;;;;;;5016701;28;20032;-86
2023/05/08 12:11:44;;;;;;;12.00;10.68;;;25.30;99.90;;;;;;5043385;28;20041;-87
2023/05/08 12:14:11;;;;;;;10.30;9.18;;;24.90;84.90;;;;;;5017764;28;20059;-87
2023/05/08 12:16:38;;;;;;;11.05;9.95;;;25.40;36.10;;;;;;5034175;28;20036;-86
2023/05/08 12:19:09;;;;;;;11.23;10.13;;;25.10;99.90;;;;;;5030104;28;20091;-87
2023/05/08 12:21:35;;;;;;;16.35;12.10;;;24.90;99.90;;;;;;5021859;28;20202;-87
2023/05/08 12:24:05;;;;;;;12.15;10.95;;;24.90;99.90;;;;;;5029233;28;20362;-87
2023/05/08 12:26:36;;;;;;;12.20;10.75;;;24.20;99.90;;;;;;5029606;28;20049;-88
2023/05/08 12:29:04;;;;;;;11.38;9.82;;;25.10;6.50;;;;;;5019446;28;20565;-87
2023/05/08 12:31:29;;;;;;;11.40;9.55;;;26.10;1.00;;;;;;5017892;28;20047;-87
2023/05/08 12:33:55;;;;;;;11.27;10.10;;;25.70;99.90;;;;;;5021608;28;20442;-86
2023/05/08 12:36:21;;;;;;;14.80;10.20;;;25.60;99.90;;;;;;5017788;28;20033;-86
2023/05/08 12:38:47;;;;;;;12.65;11.38;;;25.60;63.80;;;;;;5031006;28;20045;-87
2023/05/08 12:41:13;;;;;;;11.43;10.25;;;24.70;1.00;;;;;;5033664;28;20053;-86